Date,TemperatureHighF,TemperatureAvgF,TemperatureLowF,DewpointHighF,DewpointAvgF,DewpointLowF,HumidityHigh,HumidityAvg,HumidityLow,PressureMaxIn,PressureMinIn,WindSpeedMaxMPH,WindSpeedAvgMPH,GustSpeedMaxMPH,PrecipitationSumIn
2013-1-1,69,58,50,64,54,47,90,86,83,30.16,29.89,7,4,16,2.63
2013-1-2,50,47,45,47,44,42,91,89,87,30.28,30.14,6,3,13,0.01
2013-1-3,59,48,41,43,40,38,91,76,48,30.40,30.26,6,2,15,0.01
2013-1-4,52,48,43,42,40,38,92,75,62,30.49,30.32,5,2,10,0.00
2013-1-5,49,47,45,46,43,40,92,87,75,30.36,30.23,5,1,9,0.56
2013-1-6,62,50,38,50,44,35,91,81,58,30.31,30.22,8,3,15,0.27
2013-1-7,63,48,34,48,42,31,91,79,54,30.32,30.13,7,0,12,0.00
2013-1-8,66,59,51,62,54,46,89,86,80,30.12,29.97,12,2,18,0.23
2013-1-9,69,66,63,65,62,58,87,85,84,30.11,29.94,11,3,21,3.05
2013-1-10,68,66,64,64,62,60,90,87,85,30.09,29.92,5,2,11,2.92
2013-1-11,75,65,46,67,58,43,91,79,58,30.05,29.92,10,1,17,0.06
2013-1-12,78,75,73,73,70,68,88,86,83,29.96,29.76,11,7,21,0.09
2013-1-13,75,58,48,71,54,45,90,88,87,30.12,29.73,15,5,25,0.29
2013-1-14,48,44,40,45,41,37,91,90,87,30.19,30.05,9,5,17,0.03
2013-1-15,43,40,37,40,37,34,91,89,88,30.11,30.00,8,3,15,0.29
2013-1-16,44,37,32,40,34,30,91,90,85,30.24,30.08,5,2,12,0.17
2013-1-17,55,36,31,41,33,29,91,87,60,30.45,30.22,2,0,6,0.01
2013-1-18,48,35,30,43,32,27,90,88,70,30.53,30.38,1,0,7,0.00
2013-1-19,67,46,30,51,39,27,90,79,45,30.38,30.20,5,0,9,0.00
2013-1-20,72,52,35,58,44,32,90,77,45,30.27,30.11,4,0,9,0.00
2013-1-21,72,53,39,56,46,36,90,78,50,30.23,30.14,2,0,6,0.00
2013-1-22,71,51,39,52,44,36,90,77,48,30.35,30.22,3,1,9,0.00
2013-1-23,73,56,41,61,50,38,92,82,63,30.37,30.25,8,2,14,0.01
2013-1-24,74,62,47,67,57,43,92,85,78,30.31,30.18,7,2,14,0.01
2013-1-25,78,69,57,66,61,53,88,79,61,30.21,30.09,10,3,18,0.00
2013-1-26,78,66,53,68,60,49,89,80,64,30.21,30.12,8,2,14,0.01
2013-1-27,76,66,53,67,61,49,89,83,71,30.19,30.10,12,4,17,0.01
2013-1-28,78,71,66,71,67,61,88,86,79,30.16,30.04,9,4,16,0.00
2013-1-29,78,74,71,73,70,67,88,87,83,30.04,29.67,15,9,27,0.00
2013-1-30,75,56,39,71,44,33,90,66,38,30.20,29.69,11,4,25,0.53
2013-1-31,65,56,37,44,37,29,90,54,28,30.32,30.20,10,2,16,0.00
2013-2-1,70,53,42,48,43,39,89,73,37,30.39,30.29,3,0,8,0.00
2013-2-2,74,55,40,59,48,37,92,79,54,30.29,30.16,6,1,13,0.00
2013-2-3,74,56,43,53,43,33,90,69,24,30.31,30.11,4,1,10,0.00
2013-2-4,69,62,46,62,57,42,89,85,75,30.03,29.88,6,1,10,0.23
2013-2-5,75,65,55,69,61,52,89,86,77,30.01,29.90,4,0,8,0.48
2013-2-6,67,62,55,64,58,51,89,87,85,30.09,29.90,11,2,21,0.74
2013-2-7,71,63,56,66,59,52,90,87,83,29.98,29.87,3,0,9,0.57
2013-2-8,69,62,50,60,57,46,90,84,71,30.16,29.96,9,2,14,0.00
2013-2-9,68,59,48,64,55,45,90,87,82,30.17,29.94,10,3,16,0.00
2013-2-10,78,70,65,73,65,60,89,86,83,29.96,29.82,15,5,25,0.09
2013-2-11,65,58,54,60,54,50,90,87,85,30.15,29.94,8,3,16,1.31
2013-2-12,67,59,55,64,56,52,90,88,86,30.01,29.74,6,2,14,0.09
2013-2-13,62,54,42,53,47,39,90,80,54,30.08,29.91,9,3,18,0.02
2013-2-14,52,42,37,47,38,34,90,89,82,30.11,30.07,0,0,0,0.02
2013-2-15,71,53,36,52,42,33,89,70,36,30.26,30.10,9,2,15,0.00
2013-2-16,60,48,36,43,33,26,89,59,30,30.40,30.24,10,3,21,0.00
2013-2-17,69,51,34,51,42,31,90,74,46,30.28,30.13,10,3,18,0.00
2013-2-18,72,65,55,66,59,50,88,83,72,30.13,29.87,15,6,27,0.69
2013-2-19,70,58,47,56,44,35,88,65,29,30.24,30.00,9,3,17,0.64
2013-2-20,62,55,49,48,41,32,73,60,45,30.20,29.93,10,4,17,0.00
2013-2-21,75,66,56,70,60,47,86,82,71,29.93,29.67,14,6,26,0.10
2013-2-22,67,62,58,59,56,53,89,80,68,29.96,29.84,5,2,13,0.05
2013-2-23,70,58,50,58,51,46,89,78,54,29.98,29.88,6,2,12,0.01
2013-2-24,72,58,41,60,50,37,92,77,47,29.97,29.70,7,1,13,0.01
2013-2-25,76,67,53,72,56,34,87,71,31,29.70,29.41,11,4,26,0.02
2013-2-26,66,53,46,47,40,35,92,63,40,29.93,29.66,10,4,25,0.01
2013-2-27,76,55,40,56,43,36,89,68,26,30.11,29.92,11,2,22,0.00
2013-2-28,57,48,37,43,37,34,89,69,44,30.23,30.10,7,2,16,0.00
2013-3-1,64,48,34,40,35,31,90,67,30,30.23,30.11,10,2,21,0.00
2013-3-2,55,42,32,36,32,29,89,71,42,30.29,30.19,10,3,19,0.00
2013-3-3,65,46,29,45,34,26,89,66,30,30.29,30.06,8,2,15,0.00
2013-3-4,75,63,47,64,56,43,88,79,66,30.06,29.84,15,6,27,0.00
2013-3-5,73,66,51,65,49,32,87,59,24,30.27,29.85,10,5,21,0.00
2013-3-6,70,50,32,42,33,26,89,60,19,30.39,30.23,6,2,11,0.00
2013-3-7,67,50,35,45,39,32,89,68,34,30.33,30.21,5,1,10,0.00
2013-3-8,72,56,38,59,47,34,88,76,54,30.27,30.12,8,2,13,0.00
2013-3-9,73,67,59,66,62,54,87,84,76,30.06,29.85,14,6,19,0.00
2013-3-10,75,64,57,69,60,53,87,85,77,29.97,29.80,11,4,21,0.29
2013-3-11,63,53,40,50,40,34,89,64,35,30.08,29.95,9,3,19,0.01
2013-3-12,73,52,34,48,38,31,89,67,28,30.25,30.06,6,1,12,0.00
2013-3-13,75,55,37,46,38,32,89,62,21,30.44,30.24,6,2,14,0.00
2013-3-14,70,50,36,48,38,33,88,69,31,30.44,30.36,7,2,12,0.00
2013-3-15,77,65,40,62,56,36,88,73,52,30.26,30.09,11,4,19,0.00
2013-3-16,78,69,63,63,61,59,87,77,55,30.09,29.90,12,5,20,0.00
2013-3-17,78,70,60,70,64,55,87,83,74,29.91,29.75,14,4,22,0.00
2013-3-18,86,75,69,73,68,64,87,80,61,29.90,29.73,11,3,17,0.00
2013-3-19,79,69,55,67,55,45,87,62,45,30.01,29.90,8,2,19,0.00
2013-3-20,77,63,48,55,46,33,88,60,21,30.19,29.97,9,4,20,0.26
2013-3-21,71,60,46,55,47,41,89,66,35,30.06,29.77,12,4,19,0.08
2013-3-22,81,73,62,73,67,56,87,83,72,29.80,29.68,9,4,15,0.00
2013-3-23,77,72,70,73,68,65,88,84,82,29.76,29.56,5,1,10,0.01
2013-3-24,70,61,44,65,48,35,88,66,37,30.09,29.62,11,4,22,0.01
2013-3-25,64,48,34,41,33,25,90,63,23,30.33,30.09,9,2,22,0.00
2013-3-26,62,46,31,39,32,27,90,64,27,30.46,30.32,8,2,18,0.00
2013-3-27,68,50,32,47,38,29,89,67,36,30.42,30.24,7,2,14,0.00
2013-3-28,73,58,41,58,50,38,88,76,50,30.33,30.20,8,2,14,0.00
2013-3-29,77,63,48,64,56,44,88,78,55,30.27,30.14,8,2,14,0.00
2013-3-30,77,68,57,67,59,-100,86,79,60,30.17,29.99,9,3,19,0.01
2013-3-31,79,67,59,71,61,54,86,83,63,30.00,29.88,14,2,27,0.75
2013-4-1,84,67,55,67,59,51,88,77,49,30.09,29.96,5,1,9,0.10
2013-4-2,77,66,54,66,60,50,88,80,63,30.06,29.88,10,2,15,0.01
2013-4-3,69,57,51,64,53,47,92,86,83,30.06,29.78,14,5,29,2.44
2013-4-4,55,51,49,50,47,45,89,86,83,30.14,29.99,6,2,15,0.01
2013-4-5,77,59,45,59,49,41,92,73,41,30.21,30.07,6,1,13,0.01
2013-4-6,74,61,47,61,54,43,89,78,60,30.12,29.99,11,3,20,0.00
2013-4-7,79,69,60,66,61,55,88,77,60,30.03,29.90,11,4,18,0.00
2013-4-8,81,74,69,69,67,64,87,79,62,29.93,29.84,14,6,22,0.00
2013-4-9,82,76,69,76,71,64,87,85,82,29.90,29.79,16,8,29,0.00
2013-4-10,83,78,64,76,73,58,87,85,77,29.85,29.73,15,9,27,0.04
2013-4-11,69,57,49,58,51,45,90,82,60,29.87,29.69,9,3,17,1.76
2013-4-12,81,61,44,60,49,40,89,70,31,30.01,29.86,5,1,16,0.03
2013-4-13,80,65,47,62,53,43,89,69,41,30.01,29.80,10,2,15,0.01
2013-4-14,79,68,62,68,63,57,88,82,64,29.81,29.69,6,1,9,0.25
2013-4-15,87,75,61,77,68,56,88,81,59,29.88,29.76,9,3,20,0.01
2013-4-16,85,79,76,78,74,70,87,84,79,29.99,29.87,9,5,17,0.01
2013-4-17,86,80,76,77,74,71,87,84,73,29.99,29.84,12,6,21,0.00
2013-4-18,83,73,54,77,69,51,89,85,77,30.01,29.70,15,8,23,0.28
2013-4-19,68,56,46,51,44,40,92,68,36,30.20,30.00,10,4,18,0.22
2013-4-20,72,56,39,54,44,36,89,68,36,30.27,30.09,9,2,17,0.00
2013-4-21,75,60,44,58,50,41,89,71,45,30.20,30.08,9,1,15,0.00
2013-4-22,80,64,47,64,54,43,88,73,47,30.12,29.96,9,2,14,0.01
2013-4-23,85,72,56,73,65,52,89,80,64,30.01,29.91,12,4,20,0.01
2013-4-24,76,65,54,72,59,50,89,81,64,30.22,29.87,11,5,22,1.07
2013-4-25,77,64,53,59,51,45,87,65,33,30.31,30.19,8,3,15,0.02
2013-4-26,80,70,61,72,64,54,88,79,70,30.23,30.11,8,2,13,0.00
2013-4-27,81,75,70,73,70,66,87,84,72,30.13,29.97,8,2,19,0.03
2013-4-28,83,74,63,73,67,58,88,80,67,30.03,29.89,7,1,14,0.10
2013-4-29,84,70,59,73,64,55,88,82,58,29.96,29.84,9,1,18,0.01
2013-4-30,82,72,64,74,66,59,88,83,73,29.87,29.77,10,2,15,0.35
2013-5-1,83,74,67,74,68,62,89,81,67,29.88,29.80,3,0,8,0.06
2013-5-2,77,69,58,71,64,54,89,85,74,30.06,29.87,8,2,20,0.10
2013-5-3,68,56,47,54,47,42,89,75,42,30.10,29.99,11,5,22,0.06
2013-5-4,78,57,41,59,48,38,89,74,32,30.06,29.83,8,2,18,0.01
2013-5-5,70,59,47,53,48,44,89,71,46,30.05,29.91,8,2,16,0.01
2013-5-6,80,62,44,61,52,41,89,72,46,30.07,29.94,5,1,11,0.00
2013-5-7,86,70,55,65,58,51,88,69,41,30.05,29.96,7,1,11,0.00
2013-5-8,82,70,56,70,62,52,89,77,49,30.08,30.00,8,2,14,0.00
2013-5-9,80,74,65,74,69,60,87,85,79,30.06,29.87,8,2,17,0.07
2013-5-10,78,70,67,72,64,-100,88,84,73,30.06,29.82,12,3,19,4.30
2013-5-11,86,73,66,75,66,-100,88,82,66,30.08,29.89,5,0,10,0.27
2013-5-12,85,71,59,68,62,54,88,74,50,30.17,30.06,6,1,12,0.01
2013-5-13,81,66,50,64,53,46,88,67,33,30.29,30.16,6,1,10,0.00
2013-5-14,85,70,53,70,57,49,89,69,31,30.24,30.13,8,2,13,0.01
2013-5-15,81,71,60,71,65,55,89,82,66,30.16,29.97,8,2,16,0.01
2013-5-16,83,71,69,73,48,-100,87,80,68,29.98,29.86,10,4,20,0.00
2013-5-17,86,78,75,77,69,-100,87,83,74,29.97,29.88,9,3,16,0.00
2013-5-18,88,81,77,77,74,72,87,80,60,30.00,29.92,8,4,15,0.00
2013-5-19,88,82,77,78,75,72,87,81,65,29.95,29.87,11,6,20,0.00
2013-5-20,89,83,79,80,77,75,87,83,69,29.94,29.83,10,6,22,0.00
2013-5-21,88,82,78,79,76,73,87,83,72,29.89,29.75,11,5,20,0.02
2013-5-22,88,78,69,79,72,64,88,83,74,29.94,29.78,6,1,14,1.38
2013-5-23,91,81,71,80,74,66,87,80,64,30.05,29.92,7,2,14,0.01
2013-5-24,91,80,71,80,74,66,88,81,65,30.14,30.01,4,0,13,0.00
2013-5-25,88,78,70,78,72,65,88,81,66,30.17,30.09,6,1,12,0.11
2013-5-26,88,78,70,77,71,65,88,80,60,30.12,30.03,7,1,13,0.11
2013-5-27,88,81,69,76,72,64,88,76,56,30.07,29.96,9,3,15,0.01
2013-5-28,88,80,74,77,73,69,87,78,65,30.01,29.92,8,3,16,0.00
2013-5-29,88,81,72,77,74,67,88,80,64,29.95,29.85,9,3,17,0.00
2013-5-30,89,83,77,80,76,72,87,81,67,29.93,29.84,11,4,20,0.01
2013-5-31,89,83,79,81,77,74,87,83,73,29.94,29.87,10,4,19,0.50
2013-6-1,91,84,80,82,78,75,87,81,69,29.92,29.85,9,4,17,0.01
2013-6-2,86,78,72,78,72,67,88,84,74,30.00,29.87,6,1,14,0.62
2013-6-3,94,80,70,79,72,65,88,77,57,29.93,29.83,4,0,8,0.01
2013-6-4,94,82,71,82,74,66,88,76,51,29.93,29.81,2,0,10,0.00
2013-6-5,95,84,74,82,77,69,87,78,60,29.89,29.75,5,1,9,0.00
2013-6-6,90,78,71,81,73,66,88,84,73,29.87,29.72,10,0,24,1.07
2013-6-7,90,76,68,76,70,63,88,82,61,29.91,29.83,2,0,8,0.40
2013-6-8,89,75,67,78,69,62,87,83,65,29.93,29.85,9,0,22,0.64
2013-6-9,90,77,69,81,72,64,88,84,71,29.95,29.86,5,0,13,0.01
2013-6-10,92,81,69,82,74,64,88,80,68,29.99,29.93,5,1,12,0.01
2013-6-11,94,83,72,83,76,67,88,79,64,30.06,29.97,5,1,12,0.00
2013-6-12,94,84,72,81,76,67,88,78,55,30.07,29.97,5,1,12,0.00
2013-6-13,97,84,73,84,76,68,87,79,56,30.06,29.90,5,0,9,0.00
2013-6-14,99,86,75,85,78,70,87,78,60,29.96,29.83,7,0,15,0.87
2013-6-15,96,83,75,84,76,70,88,81,64,29.98,29.88,5,0,11,0.89
2013-6-16,96,84,74,82,76,69,87,79,55,30.03,29.94,7,0,12,0.01
2013-6-17,93,84,73,82,76,68,87,78,63,30.00,29.89,7,2,13,0.00
2013-6-18,92,83,75,81,76,70,87,80,63,29.98,29.88,6,1,15,0.21
2013-6-19,84,78,75,80,73,70,87,85,81,30.02,29.93,7,0,16,1.00
2013-6-20,93,81,73,83,74,68,88,80,62,30.09,29.98,7,0,10,0.11
2013-6-22,93,88,79,81,79,74,86,75,60,30.07,29.96,5,1,9,0.00
2013-6-23,91,82,73,82,75,68,88,81,65,30.03,29.96,6,1,13,0.00
2013-6-24,92,83,74,81,76,69,87,80,65,30.08,30.00,7,1,13,0.00
2013-6-25,94,83,73,82,76,68,87,79,58,30.06,29.96,7,1,12,0.00
2013-6-26,95,85,77,81,77,72,87,78,61,30.02,29.93,7,1,15,0.00
2013-6-27,99,84,72,82,75,67,87,77,53,30.02,29.91,4,0,10,0.00
2013-6-28,97,87,77,82,78,72,87,76,55,29.96,29.78,6,1,11,0.00
2013-6-29,101,86,78,82,78,73,88,78,48,29.81,29.67,5,1,13,0.00
2013-6-30,94,75,69,74,69,64,88,83,41,29.82,29.75,4,0,11,0.00
2013-7-1,88,71,65,75,66,61,88,85,56,29.93,29.82,2,0,6,0.00
2013-7-2,93,74,66,75,67,61,88,80,43,29.99,29.92,2,0,8,0.00
2013-7-3,92,72,66,72,66,61,88,83,45,30.01,29.93,3,0,9,0.00
2013-7-4,94,74,66,76,67,61,88,81,45,29.97,29.90,2,0,9,0.00
2013-7-5,96,78,68,79,70,63,87,79,45,29.97,29.89,6,1,12,0.00
2013-7-6,92,80,71,80,74,66,87,80,63,29.96,29.88,6,1,12,0.00
2013-7-7,91,81,78,82,76,72,87,84,71,30.03,29.91,6,0,14,1.34
2013-7-8,93,83,73,83,76,68,87,81,61,30.12,30.01,6,1,12,0.05
2013-7-9,94,82,74,83,76,69,88,81,58,30.16,30.05,6,0,10,0.05
2013-7-10,94,81,73,82,73,-100,88,79,64,30.09,29.95,7,1,12,0.00
2013-7-11,94,83,75,82,76,70,88,82,64,30.00,29.89,4,0,10,0.00
2013-7-12,98,84,75,82,76,70,88,79,56,29.96,29.84,4,0,10,0.00
2013-7-13,97,79,71,75,71,67,88,77,38,29.96,29.86,1,0,8,0.00
2013-7-14,92,76,70,79,71,65,88,84,56,29.96,29.89,1,0,4,0.00
2013-7-15,89,82,77,80,76,72,88,83,73,30.03,29.92,9,2,16,0.00
2013-7-16,90,82,74,81,76,69,88,81,69,30.10,30.04,11,2,18,0.00
2013-7-17,93,83,74,82,76,69,88,81,62,30.19,30.10,19,1,32,0.11
2013-7-18,95,80,70,80,72,65,88,78,52,30.14,29.98,9,1,17,0.10
2013-7-19,92,78,72,80,72,67,88,82,66,30.05,29.94,5,0,11,0.49
2013-7-20,92,79,72,81,72,-100,88,81,61,29.98,29.88,8,0,14,0.13
2013-7-21,88,80,72,81,74,67,88,83,72,30.01,29.93,15,2,24,0.67
2013-7-22,94,86,77,83,79,72,88,81,64,30.03,29.96,7,2,14,0.13
2013-7-23,94,86,79,82,79,74,88,80,66,30.04,29.91,7,2,15,0.00
2013-7-24,94,85,75,82,78,71,88,81,63,30.00,29.87,6,1,13,0.00
2013-7-25,97,85,77,84,79,72,88,82,62,30.03,29.93,3,0,8,0.00
2013-7-26,95,84,74,82,77,69,89,80,59,30.05,29.92,5,1,10,0.00
2013-7-27,90,84,77,84,79,72,89,85,75,29.95,29.85,6,1,14,0.14
2013-7-28,91,82,76,82,76,72,89,84,73,29.99,29.90,7,1,13,0.01
2013-7-29,84,76,72,80,72,68,89,86,85,30.06,29.98,0,0,0,0.00
2013-7-31,97,88,79,81,78,74,88,75,55,30.00,29.95,4,1,8,0.00
2013-8-1,100,85,74,82,77,70,89,79,49,30.02,29.88,3,0,8,0.00
2013-8-2,99,86,74,82,77,69,88,77,53,29.98,29.90,5,1,10,0.00
2013-8-3,97,84,74,82,76,69,88,78,55,30.04,29.97,5,1,13,0.00
2013-8-4,97,84,74,83,78,69,88,81,58,30.08,29.97,6,0,13,0.54
2013-8-5,97,86,75,82,77,70,88,78,51,30.05,29.92,5,1,11,0.01
2013-8-6,98,86,75,83,79,71,88,78,53,29.98,29.88,6,1,13,0.00
2013-8-7,98,86,76,83,78,72,88,79,49,29.97,29.85,5,1,12,0.00
2013-8-8,98,82,72,82,74,68,89,78,45,29.95,29.86,6,1,11,0.00
2013-8-9,100,83,73,83,75,68,88,78,51,29.98,29.87,4,0,10,1.26
2013-8-10,95,81,76,83,75,71,88,83,67,30.04,29.96,8,0,16,1.91
2013-8-11,92,83,74,84,76,69,89,81,67,30.07,30.00,10,1,18,0.02
2013-8-12,91,83,75,83,78,70,89,84,73,30.08,29.96,6,1,11,0.02
2013-8-13,97,84,76,84,75,-100,89,78,55,30.03,29.89,5,1,10,0.02
2013-8-14,92,81,77,82,71,-100,89,83,67,29.98,29.91,5,1,12,0.39
2013-8-15,90,71,71,80,55,-100,90,79,68,30.02,29.91,2,0,8,0.29
2013-8-16,94,76,70,78,66,-100,89,79,50,29.98,29.90,1,0,8,0.01
2013-8-17,92,75,68,75,67,-100,90,80,46,29.98,29.91,4,1,10,0.00
2013-8-18,95,80,71,78,72,67,89,78,46,30.01,29.94,5,1,12,0.00
2013-8-19,93,73,67,78,57,-100,89,77,48,30.03,29.93,4,0,10,0.00
2013-8-20,84,75,70,78,70,-100,89,87,83,30.05,29.96,1,0,7,0.11
2013-8-21,94,81,71,83,75,67,90,82,63,30.08,29.99,7,1,11,0.02
2013-8-22,95,84,74,82,76,70,90,78,57,30.07,29.93,4,0,10,0.00
2013-8-23,96,83,72,83,76,68,89,79,54,29.99,29.87,4,0,13,0.00
2013-8-24,94,81,72,80,75,68,90,81,57,30.02,29.95,9,1,15,0.00
2013-8-25,89,81,75,81,77,71,90,86,74,30.11,30.05,10,2,16,0.36
2013-8-26,84,78,74,79,74,70,90,88,84,30.14,30.07,7,1,14,0.01
2013-8-27,92,77,70,79,71,66,90,84,63,30.11,30.05,2,0,8,0.01
2013-8-28,97,89,78,80,77,75,90,70,52,30.06,29.96,3,0,7,0.00
2013-8-29,97,83,73,81,75,69,90,78,50,30.05,29.94,4,0,11,0.00
2013-8-30,94,82,70,81,74,66,90,78,57,30.02,29.89,4,0,12,0.00
2013-8-31,96,81,70,82,72,-100,90,77,54,29.96,29.84,5,1,11,0.00
2013-9-1,96,83,70,82,74,66,90,77,54,29.93,29.83,5,1,10,0.00
2013-9-2,98,87,71,82,78,67,89,75,46,29.97,29.83,5,1,11,0.00
2013-9-3,98,84,75,82,76,71,90,79,50,29.96,29.86,6,0,16,0.00
2013-9-4,97,82,72,83,75,68,90,81,57,30.03,29.92,10,0,15,0.79
2013-9-5,94,82,74,83,76,70,90,83,62,30.09,29.99,5,0,11,0.06
2013-9-6,95,82,74,83,75,70,90,81,60,30.08,29.96,6,1,14,0.06
2013-9-7,94,81,74,82,73,-100,90,80,61,30.03,29.93,6,1,15,0.00
2013-9-8,93,81,68,79,73,64,90,79,49,30.00,29.89,4,0,11,0.00
2013-9-9,93,81,70,79,73,66,90,78,52,30.01,29.93,7,1,13,0.00
2013-9-10,93,80,70,80,72,66,90,79,56,30.08,29.98,8,1,13,0.00
2013-9-11,95,81,70,80,73,66,90,79,51,30.09,29.98,9,1,20,0.00
2013-9-12,97,82,70,79,71,66,90,73,39,30.03,29.89,5,1,13,0.00
2013-9-13,98,81,69,79,72,65,90,76,43,29.93,29.78,5,0,9,0.02
2013-9-14,93,80,74,79,72,-100,90,81,59,29.94,29.84,6,1,12,0.02
2013-9-15,95,80,71,79,73,67,90,81,56,30.01,29.92,6,1,13,0.02
2013-9-16,96,81,70,81,73,66,90,78,47,30.04,29.96,5,1,13,0.01
2013-9-17,96,81,70,81,73,66,90,78,50,30.06,29.92,6,1,12,0.00
2013-9-18,81,75,73,76,71,69,90,88,83,29.99,29.96,0,0,3,0.00
2013-9-19,92,82,74,82,76,71,91,85,70,29.98,29.88,6,1,12,0.22
2013-9-20,82,79,77,78,75,73,91,87,86,29.92,29.74,8,1,14,6.02
2013-9-30,78,76,73,74,72,69,89,87,85,29.93,29.83,3,0,8,0.77
2013-10-1,80,77,74,76,73,71,90,88,85,29.97,29.93,1,0,5,0.17
2013-10-2,90,79,72,81,74,68,90,83,63,30.01,29.91,8,1,18,0.01
2013-10-3,91,80,70,80,73,65,88,79,58,29.98,29.88,5,1,11,0.01
2013-10-4,92,81,71,82,74,66,88,81,65,29.96,29.89,8,2,14,0.00
2013-10-5,92,81,74,82,75,67,88,81,70,29.94,29.83,5,1,10,0.00
2013-10-6,77,70,57,70,61,52,90,75,44,30.01,29.87,7,2,15,0.01
2013-10-7,82,62,50,60,54,46,89,75,47,30.09,29.99,4,1,9,0.01
2013-10-8,82,64,50,64,55,46,89,75,50,30.09,29.98,4,0,7,0.01
2013-10-9,56,54,52,52,50,48,88,86,85,30.02,30.01,0,0,0,0.00
2013-10-10,85,71,54,71,63,49,88,76,56,30.08,29.96,3,0,8,0.00
2013-10-11,88,72,58,78,66,53,88,81,64,30.00,29.91,3,0,8,0.00
2013-10-12,90,78,69,82,70,-100,88,80,70,30.09,29.93,5,1,13,0.44
2013-10-13,83,75,69,78,70,63,89,83,78,30.16,30.01,3,0,9,0.33
2013-10-14,87,77,70,78,71,64,89,82,69,30.10,29.97,2,0,7,0.01
2013-10-15,89,77,68,77,69,62,88,77,53,30.01,29.89,6,1,12,0.00
2013-10-16,87,76,65,78,70,59,88,82,68,29.96,29.87,3,0,9,0.00
2013-10-17,76,69,58,69,64,54,89,86,76,30.04,29.94,3,0,11,0.01
2013-10-18,75,64,56,65,58,51,89,82,63,30.04,29.87,8,1,11,0.03
2013-10-19,68,62,50,64,56,-100,92,83,76,30.06,29.92,7,1,13,0.43
2013-10-20,78,57,43,60,50,39,92,78,45,30.09,29.95,4,0,7,0.01
2013-10-21,76,63,52,69,59,47,89,85,76,30.03,29.91,4,0,7,0.00
2013-10-22,72,65,51,68,60,48,90,84,72,30.05,29.95,5,1,11,0.00
2013-10-23,82,58,46,62,50,42,89,78,38,30.12,30.04,2,0,9,0.01
2013-10-24,85,61,48,66,53,43,89,79,48,30.20,30.10,5,0,8,0.01
2013-10-25,75,60,49,57,52,46,90,76,49,30.37,30.20,6,1,14,0.00
2013-10-26,80,59,44,63,49,-100,92,74,46,30.28,30.11,5,0,8,0.00
2013-10-27,79,65,53,73,60,48,89,83,76,30.11,29.98,8,1,13,0.10
2013-10-28,85,69,57,75,62,-100,89,82,67,30.14,30.02,4,0,7,0.10
2013-10-29,84,72,62,74,66,56,89,81,63,30.16,30.08,7,2,14,0.01
2013-10-30,82,75,69,76,70,64,89,85,77,30.11,29.90,10,3,22,0.04
2013-10-31,81,75,63,77,70,57,88,85,79,29.91,29.76,13,5,25,2.86
2013-11-1,80,64,56,64,57,52,90,79,51,29.94,29.83,3,0,6,2.86
2013-11-2,74,60,47,58,49,-100,90,73,34,30.20,29.91,8,2,15,0.04
2013-11-3,68,53,42,53,46,39,90,79,52,30.24,30.10,6,1,14,0.00
2013-11-4,77,63,46,65,56,43,89,79,63,30.14,30.06,9,2,14,0.00
2013-11-5,81,71,62,73,66,56,89,84,74,30.10,30.01,8,2,16,0.02
2013-11-6,83,72,58,75,67,55,90,84,76,30.19,29.99,7,2,12,0.53
2013-11-7,69,57,49,54,48,45,91,75,45,30.34,30.19,8,3,19,0.47
2013-11-8,69,52,44,53,46,42,91,82,44,30.36,30.19,8,0,13,0.00
2013-11-9,71,55,46,57,47,-100,90,80,47,30.23,30.14,1,0,5,0.00
2013-11-10,78,62,51,63,55,48,90,80,56,30.27,30.18,4,0,9,0.00
2013-11-11,79,59,47,62,52,43,92,79,50,30.24,30.13,2,0,6,0.00
2013-11-12,76,54,43,62,48,34,89,79,58,30.54,30.19,9,3,25,0.00
2013-11-13,61,40,33,38,32,29,91,75,32,30.58,30.41,7,2,15,0.00
2013-11-14,62,44,31,52,40,28,91,85,46,30.41,30.10,2,0,5,0.00
2013-11-15,80,62,50,67,57,47,91,83,61,30.10,29.92,4,0,8,0.00
2013-11-16,80,72,62,75,66,-100,90,83,79,29.97,29.84,9,3,15,0.00
2013-11-17,85,79,76,79,75,71,90,87,81,29.93,29.82,9,4,17,0.00
2013-11-18,78,72,61,71,60,46,89,68,36,30.11,29.93,6,2,14,0.00
2013-11-19,71,57,44,49,45,42,91,67,36,30.17,30.04,11,2,15,0.00
2013-11-20,75,54,40,59,46,37,91,76,36,30.09,29.96,5,1,9,0.00
2013-11-21,79,69,57,74,65,53,90,87,80,30.12,30.02,7,2,12,0.00
2013-11-22,75,71,61,71,66,57,91,86,79,30.20,30.09,6,2,11,0.01
2013-11-23,61,53,46,57,49,-100,92,87,83,30.38,30.17,10,5,19,0.02
2013-11-24,55,46,40,41,36,32,84,67,44,30.42,30.28,11,4,17,0.02
2013-11-25,44,42,40,41,38,36,92,86,74,30.30,29.95,7,3,13,2.46
2013-11-26,44,43,42,42,40,38,95,89,87,30.18,29.88,7,3,15,1.86
2013-11-27,52,41,31,39,36,29,93,81,52,30.42,30.18,8,2,15,0.07
2013-11-28,52,38,29,37,32,27,92,80,52,30.50,30.38,3,0,7,0.01
2013-12-2,79,69,60,69,64,57,90,83,65,29.96,29.69,9,3,15,0.00
2013-12-3,79,72,67,71,67,63,90,85,75,29.75,29.65,10,4,20,0.00
2013-12-4,80,75,72,75,71,67,90,87,82,29.84,29.73,10,4,15,0.00
2013-12-5,81,74,55,76,70,51,91,88,79,29.96,29.83,9,4,16,0.04
2013-12-6,55,47,41,51,44,39,92,89,86,30.29,29.93,9,4,15,0.04
2013-12-7,41,38,37,39,34,-100,92,88,86,30.36,30.25,7,4,16,0.01
2013-12-8,47,42,37,43,39,35,93,89,86,30.26,30.04,4,1,7,0.41
2013-12-9,48,46,42,45,43,39,91,88,86,30.23,30.04,7,2,13,0.21
2013-12-10,53,42,34,42,38,32,93,85,61,30.40,30.23,9,4,16,0.01
2013-12-11,50,43,33,45,39,31,92,87,76,30.47,30.34,3,0,7,0.00
2013-12-12,58,43,33,41,37,31,92,81,46,30.54,30.34,7,2,12,0.00
2013-12-13,66,50,34,60,45,32,92,86,72,30.34,29.86,8,2,13,0.30
2013-12-14,68,61,51,63,56,46,92,84,73,30.08,29.83,10,4,20,0.37
2013-12-15,57,50,33,42,39,31,92,69,55,30.32,30.24,6,2,12,0.00
2013-12-16,64,43,29,45,35,27,92,78,41,30.34,30.22,3,0,7,0.00
2013-12-17,71,47,32,54,39,29,92,78,41,30.33,30.22,5,1,9,0.00
2013-12-18,70,51,39,58,43,36,90,76,45,30.34,30.16,7,1,12,0.00
2013-12-19,75,64,42,67,58,39,90,82,67,30.16,29.94,12,4,19,0.00
2013-12-20,78,74,70,73,70,67,90,89,83,29.96,29.83,13,7,23,0.00
2013-12-21,78,71,57,74,66,-100,91,87,84,29.83,29.59,17,7,26,0.69
2013-12-22,64,58,45,61,53,40,92,85,81,30.27,29.80,8,2,15,0.59
2013-12-23,54,43,32,41,36,30,92,79,52,30.51,30.27,8,3,15,0.01
2013-12-24,58,40,28,42,33,26,92,80,48,30.57,30.34,2,0,10,0.00
2013-12-25,59,42,29,41,36,27,92,81,51,30.40,30.30,4,0,9,0.00
2013-12-26,64,47,34,47,39,31,92,77,43,30.41,30.28,5,0,10,0.00
2013-12-27,55,49,44,44,42,40,91,79,58,30.43,30.29,3,0,9,0.00
2013-12-28,56,48,37,48,41,-100,92,82,72,30.29,30.02,3,0,6,0.00
2013-12-29,68,47,32,51,40,29,92,79,40,30.14,30.01,3,0,6,0.00
2013-12-30,51,48,43,46,44,40,91,86,80,30.35,30.11,5,1,10,0.00
2013-12-31,53,46,42,44,42,40,92,84,64,30.41,30.27,5,1,10,0.00
2014-1-1,63,54,46,56,50,42,91,87,75,30.27,30.02,5,1,9,0.01
2014-1-2,59,50,36,54,42,30,90,73,48,30.40,30.01,12,3,20,0.04